sensor_id;sensor_type;location;lat;lon;timestamp;P1;durP1;ratioP1;P2;durP2;ratioP2
22768;SDS011;13001;51.968;5.918;2023-08-06T00:01:19;74.07;;;69.17;;
22768;SDS011;13001;51.968;5.918;2023-08-06T00:03:48;77.65;;;72.78;;
22768;SDS011;13001;51.968;5.918;2023-08-06T00:06:15;83.00;;;77.85;;
22768;SDS011;13001;51.968;5.918;2023-08-06T00:08:43;77.35;;;72.72;;
22768;SDS011;13001;51.968;5.918;2023-08-06T00:11:10;89.25;;;83.62;;
22768;SDS011;13001;51.968;5.918;2023-08-06T00:13:38;82.45;;;77.22;;
22768;SDS011;13001;51.968;5.918;2023-08-06T00:16:09;81.22;;;76.20;;
22768;SDS011;13001;51.968;5.918;2023-08-06T00:18:38;87.80;;;82.17;;
22768;SDS011;13001;51.968;5.918;2023-08-06T00:21:07;90.25;;;84.62;;
22768;SDS011;13001;51.968;5.918;2023-08-06T00:23:34;104.97;;;98.67;;
22768;SDS011;13001;51.968;5.918;2023-08-06T00:26:02;101.53;;;95.32;;
22768;SDS011;13001;51.968;5.918;2023-08-06T00:28:29;121.95;;;114.77;;
22768;SDS011;13001;51.968;5.918;2023-08-06T00:30:57;139.37;;;130.97;;
22768;SDS011;13001;51.968;5.918;2023-08-06T00:33:24;149.18;;;140.20;;
22768;SDS011;13001;51.968;5.918;2023-08-06T00:35:52;159.40;;;149.62;;
22768;SDS011;13001;51.968;5.918;2023-08-06T00:38:20;167.35;;;156.95;;
22768;SDS011;13001;51.968;5.918;2023-08-06T00:40:47;172.62;;;161.77;;
22768;SDS011;13001;51.968;5.918;2023-08-06T00:43:15;187.20;;;175.75;;
22768;SDS011;13001;51.968;5.918;2023-08-06T00:45:42;197.62;;;185.40;;
22768;SDS011;13001;51.968;5.918;2023-08-06T00:48:19;185.20;;;173.80;;
22768;SDS011;13001;51.968;5.918;2023-08-06T00:50:48;171.82;;;161.30;;
22768;SDS011;13001;51.968;5.918;2023-08-06T00:53:15;181.30;;;170.00;;
22768;SDS011;13001;51.968;5.918;2023-08-06T00:55:43;190.92;;;178.57;;
22768;SDS011;13001;51.968;5.918;2023-08-06T00:58:12;193.85;;;181.95;;
22768;SDS011;13001;51.968;5.918;2023-08-06T01:00:41;205.73;;;192.90;;
22768;SDS011;13001;51.968;5.918;2023-08-06T01:03:08;200.65;;;188.65;;
22768;SDS011;13001;51.968;5.918;2023-08-06T01:05:36;198.40;;;186.35;;
22768;SDS011;13001;51.968;5.918;2023-08-06T01:08:16;190.73;;;178.87;;
22768;SDS011;13001;51.968;5.918;2023-08-06T01:11:01;180.80;;;169.70;;
22768;SDS011;13001;51.968;5.918;2023-08-06T01:13:42;165.75;;;155.65;;
22768;SDS011;13001;51.968;5.918;2023-08-06T01:16:16;155.10;;;145.32;;
22768;SDS011;13001;51.968;5.918;2023-08-06T01:18:46;145.82;;;136.65;;
22768;SDS011;13001;51.968;5.918;2023-08-06T01:21:16;137.32;;;128.62;;
22768;SDS011;13001;51.968;5.918;2023-08-06T01:23:45;139.30;;;130.40;;
22768;SDS011;13001;51.968;5.918;2023-08-06T01:29:21;136.35;;;127.92;;
22768;SDS011;13001;51.968;5.918;2023-08-06T01:31:50;133.43;;;125.17;;
22768;SDS011;13001;51.968;5.918;2023-08-06T01:34:23;145.35;;;136.05;;
22768;SDS011;13001;51.968;5.918;2023-08-06T01:36:53;144.02;;;134.85;;
22768;SDS011;13001;51.968;5.918;2023-08-06T01:39:21;141.87;;;132.87;;
22768;SDS011;13001;51.968;5.918;2023-08-06T01:41:48;142.30;;;133.32;;
22768;SDS011;13001;51.968;5.918;2023-08-06T01:44:16;135.07;;;126.47;;
22768;SDS011;13001;51.968;5.918;2023-08-06T01:46:44;142.20;;;133.00;;
22768;SDS011;13001;51.968;5.918;2023-08-06T01:49:12;132.82;;;124.53;;
22768;SDS011;13001;51.968;5.918;2023-08-06T01:51:39;127.07;;;119.00;;
22768;SDS011;13001;51.968;5.918;2023-08-06T01:54:07;126.07;;;117.95;;
22768;SDS011;13001;51.968;5.918;2023-08-06T01:56:34;130.80;;;122.33;;
22768;SDS011;13001;51.968;5.918;2023-08-06T01:59:02;137.65;;;128.85;;
22768;SDS011;13001;51.968;5.918;2023-08-06T02:01:29;150.73;;;141.03;;
22768;SDS011;13001;51.968;5.918;2023-08-06T02:03:57;138.10;;;129.23;;
22768;SDS011;13001;51.968;5.918;2023-08-06T02:06:24;133.05;;;124.33;;
22768;SDS011;13001;51.968;5.918;2023-08-06T02:08:52;138.55;;;129.63;;
22768;SDS011;13001;51.968;5.918;2023-08-06T02:14:06;133.85;;;125.38;;
22768;SDS011;13001;51.968;5.918;2023-08-06T02:16:33;128.77;;;120.63;;
22768;SDS011;13001;51.968;5.918;2023-08-06T02:19:01;133.85;;;125.05;;
22768;SDS011;13001;51.968;5.918;2023-08-06T02:21:28;129.95;;;121.85;;
22768;SDS011;13001;51.968;5.918;2023-08-06T02:23:56;130.87;;;122.62;;
22768;SDS011;13001;51.968;5.918;2023-08-06T02:26:24;126.58;;;118.57;;
22768;SDS011;13001;51.968;5.918;2023-08-06T02:28:51;139.03;;;130.32;;
22768;SDS011;13001;51.968;5.918;2023-08-06T02:31:19;144.80;;;135.65;;
22768;SDS011;13001;51.968;5.918;2023-08-06T02:33:46;144.82;;;135.60;;
22768;SDS011;13001;51.968;5.918;2023-08-06T02:36:14;146.85;;;137.35;;
22768;SDS011;13001;51.968;5.918;2023-08-06T02:38:41;147.70;;;138.47;;
22768;SDS011;13001;51.968;5.918;2023-08-06T02:41:09;147.40;;;138.25;;
22768;SDS011;13001;51.968;5.918;2023-08-06T02:43:37;151.15;;;141.65;;
22768;SDS011;13001;51.968;5.918;2023-08-06T02:46:04;151.35;;;141.88;;
22768;SDS011;13001;51.968;5.918;2023-08-06T02:48:32;148.95;;;139.72;;
22768;SDS011;13001;51.968;5.918;2023-08-06T02:50:59;158.15;;;148.13;;
22768;SDS011;13001;51.968;5.918;2023-08-06T02:53:27;148.22;;;138.92;;
22768;SDS011;13001;51.968;5.918;2023-08-06T02:55:54;148.87;;;139.40;;
22768;SDS011;13001;51.968;5.918;2023-08-06T02:58:22;152.17;;;142.60;;
22768;SDS011;13001;51.968;5.918;2023-08-06T03:00:59;150.55;;;141.15;;
22768;SDS011;13001;51.968;5.918;2023-08-06T03:03:34;155.55;;;145.70;;
22768;SDS011;13001;51.968;5.918;2023-08-06T03:05:58;152.50;;;143.13;;
22768;SDS011;13001;51.968;5.918;2023-08-06T03:08:26;151.82;;;142.35;;
22768;SDS011;13001;51.968;5.918;2023-08-06T03:10:54;153.65;;;144.02;;
22768;SDS011;13001;51.968;5.918;2023-08-06T03:13:22;154.70;;;144.80;;
22768;SDS011;13001;51.968;5.918;2023-08-06T03:15:58;155.07;;;145.33;;
22768;SDS011;13001;51.968;5.918;2023-08-06T03:18:22;160.37;;;150.33;;
22768;SDS011;13001;51.968;5.918;2023-08-06T03:20:51;161.60;;;151.57;;
22768;SDS011;13001;51.968;5.918;2023-08-06T03:23:20;159.50;;;149.62;;
22768;SDS011;13001;51.968;5.918;2023-08-06T03:25:48;156.45;;;146.65;;
22768;SDS011;13001;51.968;5.918;2023-08-06T03:28:15;170.85;;;159.87;;
22768;SDS011;13001;51.968;5.918;2023-08-06T03:30:43;169.47;;;158.97;;
22768;SDS011;13001;51.968;5.918;2023-08-06T03:33:10;171.55;;;160.80;;
22768;SDS011;13001;51.968;5.918;2023-08-06T03:35:38;171.00;;;160.20;;
22768;SDS011;13001;51.968;5.918;2023-08-06T03:38:05;173.97;;;162.88;;
22768;SDS011;13001;51.968;5.918;2023-08-06T03:40:34;176.42;;;165.52;;
22768;SDS011;13001;51.968;5.918;2023-08-06T03:43:02;167.35;;;157.07;;
22768;SDS011;13001;51.968;5.918;2023-08-06T03:45:29;176.13;;;165.00;;
22768;SDS011;13001;51.968;5.918;2023-08-06T03:47:58;173.20;;;162.45;;
22768;SDS011;13001;51.968;5.918;2023-08-06T03:50:25;173.10;;;162.32;;
22768;SDS011;13001;51.968;5.918;2023-08-06T03:52:53;174.72;;;163.95;;
22768;SDS011;13001;51.968;5.918;2023-08-06T03:55:20;170.25;;;159.70;;
22768;SDS011;13001;51.968;5.918;2023-08-06T03:57:48;168.47;;;157.67;;
22768;SDS011;13001;51.968;5.918;2023-08-06T04:00:16;154.27;;;144.63;;
22768;SDS011;13001;51.968;5.918;2023-08-06T04:02:44;151.00;;;141.45;;
22768;SDS011;13001;51.968;5.918;2023-08-06T04:05:11;148.25;;;138.82;;
22768;SDS011;13001;51.968;5.918;2023-08-06T04:07:39;150.47;;;141.07;;
22768;SDS011;13001;51.968;5.918;2023-08-06T04:10:07;138.92;;;130.22;;
22768;SDS011;13001;51.968;5.918;2023-08-06T04:12:35;146.85;;;137.50;;
22768;SDS011;13001;51.968;5.918;2023-08-06T04:15:05;142.90;;;134.00;;
22768;SDS011;13001;51.968;5.918;2023-08-06T04:17:33;140.10;;;131.20;;
22768;SDS011;13001;51.968;5.918;2023-08-06T04:20:00;140.07;;;131.30;;
22768;SDS011;13001;51.968;5.918;2023-08-06T04:22:28;143.90;;;134.37;;
22768;SDS011;13001;51.968;5.918;2023-08-06T04:24:56;143.02;;;133.87;;
22768;SDS011;13001;51.968;5.918;2023-08-06T04:27:23;142.75;;;133.90;;
22768;SDS011;13001;51.968;5.918;2023-08-06T04:29:51;140.87;;;132.13;;
22768;SDS011;13001;51.968;5.918;2023-08-06T04:32:18;141.35;;;132.45;;
22768;SDS011;13001;51.968;5.918;2023-08-06T04:34:47;141.95;;;133.07;;
22768;SDS011;13001;51.968;5.918;2023-08-06T04:37:15;140.25;;;131.47;;
22768;SDS011;13001;51.968;5.918;2023-08-06T04:39:42;139.62;;;130.93;;
22768;SDS011;13001;51.968;5.918;2023-08-06T04:42:10;138.85;;;130.22;;
22768;SDS011;13001;51.968;5.918;2023-08-06T04:44:37;142.40;;;133.53;;
22768;SDS011;13001;51.968;5.918;2023-08-06T04:47:05;139.95;;;131.27;;
22768;SDS011;13001;51.968;5.918;2023-08-06T04:49:32;135.07;;;126.53;;
22768;SDS011;13001;51.968;5.918;2023-08-06T04:52:00;138.00;;;129.42;;
22768;SDS011;13001;51.968;5.918;2023-08-06T04:54:28;138.20;;;129.65;;
22768;SDS011;13001;51.968;5.918;2023-08-06T04:56:55;137.47;;;128.87;;
22768;SDS011;13001;51.968;5.918;2023-08-06T04:59:23;152.87;;;143.25;;
22768;SDS011;13001;51.968;5.918;2023-08-06T05:01:50;160.97;;;150.93;;
22768;SDS011;13001;51.968;5.918;2023-08-06T05:04:18;164.03;;;153.38;;
22768;SDS011;13001;51.968;5.918;2023-08-06T05:06:45;164.37;;;154.18;;
22768;SDS011;13001;51.968;5.918;2023-08-06T05:09:14;168.50;;;157.80;;
22768;SDS011;13001;51.968;5.918;2023-08-06T05:11:42;174.55;;;163.25;;
22768;SDS011;13001;51.968;5.918;2023-08-06T05:14:09;175.70;;;164.60;;
22768;SDS011;13001;51.968;5.918;2023-08-06T05:16:37;178.25;;;166.88;;
22768;SDS011;13001;51.968;5.918;2023-08-06T05:19:04;177.00;;;165.65;;
22768;SDS011;13001;51.968;5.918;2023-08-06T05:21:32;184.43;;;172.82;;
22768;SDS011;13001;51.968;5.918;2023-08-06T05:23:59;198.40;;;186.15;;
22768;SDS011;13001;51.968;5.918;2023-08-06T05:26:27;202.05;;;189.67;;
22768;SDS011;13001;51.968;5.918;2023-08-06T05:28:55;211.82;;;198.90;;
22768;SDS011;13001;51.968;5.918;2023-08-06T05:31:22;198.90;;;186.87;;
22768;SDS011;13001;51.968;5.918;2023-08-06T05:33:50;204.60;;;192.30;;
22768;SDS011;13001;51.968;5.918;2023-08-06T05:36:17;207.75;;;195.50;;
22768;SDS011;13001;51.968;5.918;2023-08-06T05:38:45;197.57;;;185.78;;
22768;SDS011;13001;51.968;5.918;2023-08-06T05:41:12;188.12;;;176.82;;
22768;SDS011;13001;51.968;5.918;2023-08-06T05:43:40;186.18;;;175.07;;
22768;SDS011;13001;51.968;5.918;2023-08-06T05:46:07;184.67;;;173.38;;
22768;SDS011;13001;51.968;5.918;2023-08-06T05:48:36;186.70;;;175.30;;
22768;SDS011;13001;51.968;5.918;2023-08-06T05:51:03;175.82;;;165.15;;
22768;SDS011;13001;51.968;5.918;2023-08-06T05:53:31;183.85;;;172.65;;
22768;SDS011;13001;51.968;5.918;2023-08-06T05:55:58;162.50;;;152.57;;
22768;SDS011;13001;51.968;5.918;2023-08-06T05:58:26;163.03;;;153.20;;
22768;SDS011;13001;51.968;5.918;2023-08-06T06:00:54;167.10;;;156.85;;
22768;SDS011;13001;51.968;5.918;2023-08-06T06:03:22;203.50;;;191.20;;
22768;SDS011;13001;51.968;5.918;2023-08-06T06:05:50;187.07;;;175.50;;
22768;SDS011;13001;51.968;5.918;2023-08-06T06:08:17;173.57;;;162.77;;
22768;SDS011;13001;51.968;5.918;2023-08-06T06:10:45;174.72;;;163.92;;
22768;SDS011;13001;51.968;5.918;2023-08-06T06:13:12;176.85;;;166.00;;
22768;SDS011;13001;51.968;5.918;2023-08-06T06:15:40;189.80;;;178.10;;
22768;SDS011;13001;51.968;5.918;2023-08-06T06:18:09;181.47;;;170.47;;
22768;SDS011;13001;51.968;5.918;2023-08-06T06:20:36;182.62;;;171.70;;
22768;SDS011;13001;51.968;5.918;2023-08-06T06:23:04;174.80;;;164.20;;
22768;SDS011;13001;51.968;5.918;2023-08-06T06:25:31;168.57;;;158.47;;
22768;SDS011;13001;51.968;5.918;2023-08-06T06:27:59;162.25;;;152.55;;
22768;SDS011;13001;51.968;5.918;2023-08-06T06:30:26;150.82;;;141.82;;
22768;SDS011;13001;51.968;5.918;2023-08-06T06:32:54;150.72;;;141.70;;
22768;SDS011;13001;51.968;5.918;2023-08-06T06:35:21;176.53;;;165.77;;
22768;SDS011;13001;51.968;5.918;2023-08-06T06:37:49;170.12;;;159.82;;
22768;SDS011;13001;51.968;5.918;2023-08-06T06:40:16;165.90;;;155.75;;
22768;SDS011;13001;51.968;5.918;2023-08-06T06:42:44;192.55;;;180.85;;
22768;SDS011;13001;51.968;5.918;2023-08-06T06:45:11;204.35;;;192.07;;
22768;SDS011;13001;51.968;5.918;2023-08-06T06:47:39;158.72;;;149.23;;
22768;SDS011;13001;51.968;5.918;2023-08-06T06:50:06;179.18;;;168.30;;
22768;SDS011;13001;51.968;5.918;2023-08-06T06:52:34;171.97;;;161.57;;
22768;SDS011;13001;51.968;5.918;2023-08-06T06:55:02;175.12;;;164.62;;
22768;SDS011;13001;51.968;5.918;2023-08-06T06:57:30;204.47;;;192.47;;
22768;SDS011;13001;51.968;5.918;2023-08-06T06:59:57;206.32;;;194.07;;
22768;SDS011;13001;51.968;5.918;2023-08-06T07:02:25;177.15;;;166.37;;
22768;SDS011;13001;51.968;5.918;2023-08-06T07:04:52;163.70;;;153.87;;
22768;SDS011;13001;51.968;5.918;2023-08-06T07:07:20;159.40;;;149.85;;
22768;SDS011;13001;51.968;5.918;2023-08-06T07:09:47;173.32;;;163.03;;
22768;SDS011;13001;51.968;5.918;2023-08-06T07:12:14;164.47;;;154.57;;
22768;SDS011;13001;51.968;5.918;2023-08-06T07:14:42;131.15;;;123.25;;
22768;SDS011;13001;51.968;5.918;2023-08-06T07:17:09;119.22;;;112.05;;
22768;SDS011;13001;51.968;5.918;2023-08-06T07:19:37;118.65;;;111.65;;
22768;SDS011;13001;51.968;5.918;2023-08-06T07:22:05;119.53;;;112.20;;
22768;SDS011;13001;51.968;5.918;2023-08-06T07:24:35;115.52;;;108.42;;
22768;SDS011;13001;51.968;5.918;2023-08-06T07:27:02;122.62;;;115.25;;
22768;SDS011;13001;51.968;5.918;2023-08-06T07:29:30;99.92;;;94.00;;
22768;SDS011;13001;51.968;5.918;2023-08-06T07:31:57;102.45;;;96.15;;
22768;SDS011;13001;51.968;5.918;2023-08-06T07:34:25;81.87;;;76.70;;
22768;SDS011;13001;51.968;5.918;2023-08-06T07:36:52;83.60;;;78.22;;
22768;SDS011;13001;51.968;5.918;2023-08-06T07:39:20;82.37;;;77.00;;
22768;SDS011;13001;51.968;5.918;2023-08-06T07:41:48;76.02;;;71.35;;
22768;SDS011;13001;51.968;5.918;2023-08-06T07:44:16;75.50;;;70.78;;
22768;SDS011;13001;51.968;5.918;2023-08-06T07:46:43;70.08;;;65.65;;
22768;SDS011;13001;51.968;5.918;2023-08-06T07:49:11;65.40;;;61.50;;
22768;SDS011;13001;51.968;5.918;2023-08-06T07:51:39;61.65;;;57.78;;
22768;SDS011;13001;51.968;5.918;2023-08-06T07:54:06;56.58;;;52.98;;
22768;SDS011;13001;51.968;5.918;2023-08-06T07:56:34;56.70;;;53.20;;
22768;SDS011;13001;51.968;5.918;2023-08-06T07:59:02;58.40;;;54.80;;
22768;SDS011;13001;51.968;5.918;2023-08-06T08:01:30;61.53;;;57.73;;
22768;SDS011;13001;51.968;5.918;2023-08-06T08:03:57;61.25;;;57.48;;
22768;SDS011;13001;51.968;5.918;2023-08-06T08:06:25;61.65;;;57.85;;
22768;SDS011;13001;51.968;5.918;2023-08-06T08:08:52;60.70;;;56.90;;
22768;SDS011;13001;51.968;5.918;2023-08-06T08:11:20;60.60;;;56.87;;
22768;SDS011;13001;51.968;5.918;2023-08-06T08:13:47;63.17;;;59.18;;
22768;SDS011;13001;51.968;5.918;2023-08-06T08:16:15;66.90;;;62.80;;
22768;SDS011;13001;51.968;5.918;2023-08-06T08:18:44;60.98;;;57.27;;
22768;SDS011;13001;51.968;5.918;2023-08-06T08:21:11;59.67;;;56.18;;
22768;SDS011;13001;51.968;5.918;2023-08-06T08:23:39;61.92;;;58.28;;
22768;SDS011;13001;51.968;5.918;2023-08-06T08:26:08;67.25;;;63.17;;
22768;SDS011;13001;51.968;5.918;2023-08-06T08:28:35;72.35;;;68.05;;
22768;SDS011;13001;51.968;5.918;2023-08-06T08:31:03;72.75;;;68.30;;
22768;SDS011;13001;51.968;5.918;2023-08-06T08:33:32;78.42;;;73.67;;
22768;SDS011;13001;51.968;5.918;2023-08-06T08:35:59;73.78;;;69.12;;
22768;SDS011;13001;51.968;5.918;2023-08-06T08:38:27;74.23;;;69.67;;
22768;SDS011;13001;51.968;5.918;2023-08-06T08:40:54;86.32;;;81.12;;
22768;SDS011;13001;51.968;5.918;2023-08-06T08:43:22;81.85;;;76.95;;
22768;SDS011;13001;51.968;5.918;2023-08-06T08:45:50;72.45;;;68.15;;
22768;SDS011;13001;51.968;5.918;2023-08-06T08:48:21;83.47;;;78.52;;
22768;SDS011;13001;51.968;5.918;2023-08-06T08:50:49;95.42;;;89.75;;
22768;SDS011;13001;51.968;5.918;2023-08-06T08:53:18;92.75;;;87.22;;
22768;SDS011;13001;51.968;5.918;2023-08-06T08:55:47;93.03;;;87.57;;
22768;SDS011;13001;51.968;5.918;2023-08-06T08:58:15;99.85;;;93.90;;
22768;SDS011;13001;51.968;5.918;2023-08-06T09:00:43;99.13;;;93.33;;
22768;SDS011;13001;51.968;5.918;2023-08-06T09:03:15;113.50;;;106.58;;
22768;SDS011;13001;51.968;5.918;2023-08-06T09:05:44;110.13;;;103.43;;
22768;SDS011;13001;51.968;5.918;2023-08-06T09:08:15;111.45;;;104.95;;
22768;SDS011;13001;51.968;5.918;2023-08-06T09:10:45;116.70;;;109.83;;
22768;SDS011;13001;51.968;5.918;2023-08-06T09:13:15;116.97;;;110.22;;
22768;SDS011;13001;51.968;5.918;2023-08-06T09:15:43;119.70;;;112.37;;
22768;SDS011;13001;51.968;5.918;2023-08-06T09:18:12;109.48;;;102.97;;
22768;SDS011;13001;51.968;5.918;2023-08-06T09:20:39;128.05;;;120.30;;
22768;SDS011;13001;51.968;5.918;2023-08-06T09:23:08;107.30;;;100.97;;
22768;SDS011;13001;51.968;5.918;2023-08-06T09:25:37;112.42;;;105.55;;
22768;SDS011;13001;51.968;5.918;2023-08-06T09:28:06;103.03;;;96.13;;
22768;SDS011;13001;51.968;5.918;2023-08-06T09:30:35;101.10;;;95.10;;
22768;SDS011;13001;51.968;5.918;2023-08-06T09:33:08;91.30;;;86.00;;
22768;SDS011;13001;51.968;5.918;2023-08-06T09:35:40;82.67;;;77.87;;
22768;SDS011;13001;51.968;5.918;2023-08-06T09:38:09;78.17;;;73.55;;
22768;SDS011;13001;51.968;5.918;2023-08-06T09:40:37;89.95;;;84.80;;
22768;SDS011;13001;51.968;5.918;2023-08-06T09:43:06;98.97;;;93.23;;
22768;SDS011;13001;51.968;5.918;2023-08-06T09:45:35;100.75;;;94.95;;
22768;SDS011;13001;51.968;5.918;2023-08-06T09:48:09;106.83;;;100.63;;
22768;SDS011;13001;51.968;5.918;2023-08-06T09:50:35;118.55;;;111.60;;
22768;SDS011;13001;51.968;5.918;2023-08-06T09:53:04;111.10;;;104.50;;
22768;SDS011;13001;51.968;5.918;2023-08-06T09:55:33;103.62;;;97.53;;
22768;SDS011;13001;51.968;5.918;2023-08-06T09:58:01;98.70;;;92.90;;
22768;SDS011;13001;51.968;5.918;2023-08-06T10:00:31;100.00;;;94.00;;
22768;SDS011;13001;51.968;5.918;2023-08-06T10:03:00;93.70;;;88.30;;
22768;SDS011;13001;51.968;5.918;2023-08-06T10:05:28;103.70;;;97.50;;
22768;SDS011;13001;51.968;5.918;2023-08-06T10:07:58;91.45;;;85.95;;
22768;SDS011;13001;51.968;5.918;2023-08-06T10:10:28;89.72;;;84.45;;
22768;SDS011;13001;51.968;5.918;2023-08-06T10:12:58;89.52;;;84.22;;
22768;SDS011;13001;51.968;5.918;2023-08-06T10:15:28;92.27;;;86.80;;
22768;SDS011;13001;51.968;5.918;2023-08-06T10:17:59;89.90;;;84.42;;
22768;SDS011;13001;51.968;5.918;2023-08-06T10:20:32;90.07;;;84.70;;
22768;SDS011;13001;51.968;5.918;2023-08-06T10:23:01;84.15;;;79.22;;
22768;SDS011;13001;51.968;5.918;2023-08-06T10:25:32;79.77;;;74.87;;
22768;SDS011;13001;51.968;5.918;2023-08-06T10:28:08;80.80;;;75.80;;
22768;SDS011;13001;51.968;5.918;2023-08-06T10:30:47;78.95;;;73.75;;
22768;SDS011;13001;51.968;5.918;2023-08-06T10:33:15;78.95;;;74.35;;
22768;SDS011;13001;51.968;5.918;2023-08-06T10:35:48;75.37;;;71.07;;
22768;SDS011;13001;51.968;5.918;2023-08-06T10:38:19;82.35;;;77.75;;
22768;SDS011;13001;51.968;5.918;2023-08-06T10:40:48;82.88;;;78.10;;
22768;SDS011;13001;51.968;5.918;2023-08-06T10:43:31;80.65;;;76.22;;
22768;SDS011;13001;51.968;5.918;2023-08-06T10:46:09;74.40;;;70.30;;
22768;SDS011;13001;51.968;5.918;2023-08-06T10:51:11;72.78;;;68.62;;
22768;SDS011;13001;51.968;5.918;2023-08-06T10:53:44;73.25;;;68.90;;
22768;SDS011;13001;51.968;5.918;2023-08-06T10:56:17;77.17;;;72.78;;
22768;SDS011;13001;51.968;5.918;2023-08-06T10:58:48;79.87;;;74.97;;
22768;SDS011;13001;51.968;5.918;2023-08-06T11:01:16;81.10;;;76.70;;
22768;SDS011;13001;51.968;5.918;2023-08-06T11:03:45;82.73;;;78.17;;
22768;SDS011;13001;51.968;5.918;2023-08-06T11:06:18;80.25;;;75.65;;
22768;SDS011;13001;51.968;5.918;2023-08-06T11:08:48;89.92;;;84.83;;
22768;SDS011;13001;51.968;5.918;2023-08-06T11:11:17;88.27;;;83.37;;
22768;SDS011;13001;51.968;5.918;2023-08-06T11:13:46;85.38;;;80.65;;
22768;SDS011;13001;51.968;5.918;2023-08-06T11:16:18;86.97;;;82.17;;
22768;SDS011;13001;51.968;5.918;2023-08-06T11:18:49;82.02;;;77.53;;
22768;SDS011;13001;51.968;5.918;2023-08-06T11:21:20;86.40;;;81.63;;
22768;SDS011;13001;51.968;5.918;2023-08-06T11:23:48;96.78;;;91.47;;
22768;SDS011;13001;51.968;5.918;2023-08-06T11:26:23;86.75;;;81.97;;
22768;SDS011;13001;51.968;5.918;2023-08-06T11:28:49;92.72;;;87.62;;
22768;SDS011;13001;51.968;5.918;2023-08-06T11:31:24;80.28;;;75.87;;
22768;SDS011;13001;51.968;5.918;2023-08-06T11:33:50;78.67;;;74.30;;
22768;SDS011;13001;51.968;5.918;2023-08-06T11:36:33;77.17;;;72.87;;
22768;SDS011;13001;51.968;5.918;2023-08-06T11:39:02;80.73;;;76.30;;
22768;SDS011;13001;51.968;5.918;2023-08-06T11:41:32;85.12;;;80.32;;
22768;SDS011;13001;51.968;5.918;2023-08-06T11:44:00;95.15;;;89.85;;
22768;SDS011;13001;51.968;5.918;2023-08-06T11:46:28;102.05;;;96.45;;
22768;SDS011;13001;51.968;5.918;2023-08-06T11:48:57;100.73;;;95.23;;
22768;SDS011;13001;51.968;5.918;2023-08-06T11:51:25;117.53;;;110.92;;
22768;SDS011;13001;51.968;5.918;2023-08-06T11:53:59;114.52;;;108.25;;
22768;SDS011;13001;51.968;5.918;2023-08-06T11:56:28;100.62;;;95.00;;
22768;SDS011;13001;51.968;5.918;2023-08-06T11:58:58;105.72;;;99.87;;
22768;SDS011;13001;51.968;5.918;2023-08-06T12:01:27;104.63;;;98.87;;
22768;SDS011;13001;51.968;5.918;2023-08-06T12:04:00;104.97;;;99.13;;
22768;SDS011;13001;51.968;5.918;2023-08-06T12:06:30;109.65;;;103.55;;
22768;SDS011;13001;51.968;5.918;2023-08-06T12:08:57;116.43;;;109.83;;
22768;SDS011;13001;51.968;5.918;2023-08-06T12:11:25;121.65;;;114.75;;
22768;SDS011;13001;51.968;5.918;2023-08-06T12:13:52;116.15;;;109.70;;
22768;SDS011;13001;51.968;5.918;2023-08-06T12:16:22;109.50;;;103.10;;
22768;SDS011;13001;51.968;5.918;2023-08-06T12:18:52;113.20;;;106.90;;
22768;SDS011;13001;51.968;5.918;2023-08-06T12:21:19;119.75;;;113.05;;
22768;SDS011;13001;51.968;5.918;2023-08-06T12:23:47;125.67;;;118.43;;
22768;SDS011;13001;51.968;5.918;2023-08-06T12:26:14;128.65;;;121.35;;
22768;SDS011;13001;51.968;5.918;2023-08-06T12:28:42;131.60;;;124.10;;
22768;SDS011;13001;51.968;5.918;2023-08-06T12:31:09;134.20;;;126.23;;
22768;SDS011;13001;51.968;5.918;2023-08-06T12:33:37;140.68;;;132.57;;
22768;SDS011;13001;51.968;5.918;2023-08-06T12:36:04;140.88;;;132.78;;
22768;SDS011;13001;51.968;5.918;2023-08-06T12:38:32;141.77;;;133.37;;
22768;SDS011;13001;51.968;5.918;2023-08-06T12:40:59;137.80;;;129.85;;
22768;SDS011;13001;51.968;5.918;2023-08-06T12:43:27;142.03;;;133.82;;
22768;SDS011;13001;51.968;5.918;2023-08-06T12:45:54;140.95;;;132.70;;
22768;SDS011;13001;51.968;5.918;2023-08-06T12:48:22;142.55;;;134.35;;
22768;SDS011;13001;51.968;5.918;2023-08-06T12:50:49;138.50;;;130.30;;
22768;SDS011;13001;51.968;5.918;2023-08-06T12:53:17;141.55;;;133.35;;
22768;SDS011;13001;51.968;5.918;2023-08-06T12:55:46;139.12;;;131.07;;
22768;SDS011;13001;51.968;5.918;2023-08-06T12:58:13;143.70;;;135.25;;
22768;SDS011;13001;51.968;5.918;2023-08-06T13:00:41;141.25;;;133.05;;
22768;SDS011;13001;51.968;5.918;2023-08-06T13:03:08;137.80;;;129.82;;
22768;SDS011;13001;51.968;5.918;2023-08-06T13:05:36;132.37;;;124.83;;
22768;SDS011;13001;51.968;5.918;2023-08-06T13:08:03;139.07;;;131.07;;
22768;SDS011;13001;51.968;5.918;2023-08-06T13:10:31;137.80;;;129.93;;
22768;SDS011;13001;51.968;5.918;2023-08-06T13:12:58;142.93;;;134.50;;
22768;SDS011;13001;51.968;5.918;2023-08-06T13:15:26;137.77;;;129.68;;
22768;SDS011;13001;51.968;5.918;2023-08-06T13:17:54;137.77;;;129.68;;
22768;SDS011;13001;51.968;5.918;2023-08-06T13:20:21;143.28;;;134.82;;
22768;SDS011;13001;51.968;5.918;2023-08-06T13:22:49;135.63;;;127.83;;
22768;SDS011;13001;51.968;5.918;2023-08-06T13:25:18;141.83;;;133.37;;
22768;SDS011;13001;51.968;5.918;2023-08-06T13:27:46;141.62;;;133.55;;
22768;SDS011;13001;51.968;5.918;2023-08-06T13:30:13;141.32;;;133.12;;
22768;SDS011;13001;51.968;5.918;2023-08-06T13:32:43;137.77;;;129.75;;
22768;SDS011;13001;51.968;5.918;2023-08-06T13:35:12;143.15;;;134.93;;
22768;SDS011;13001;51.968;5.918;2023-08-06T13:37:40;131.47;;;123.90;;
22768;SDS011;13001;51.968;5.918;2023-08-06T13:40:07;133.10;;;125.40;;
22768;SDS011;13001;51.968;5.918;2023-08-06T13:42:35;129.13;;;121.70;;
22768;SDS011;13001;51.968;5.918;2023-08-06T13:45:04;131.47;;;123.72;;
22768;SDS011;13001;51.968;5.918;2023-08-06T13:47:33;130.37;;;122.65;;
22768;SDS011;13001;51.968;5.918;2023-08-06T13:50:00;123.62;;;116.42;;
22768;SDS011;13001;51.968;5.918;2023-08-06T13:52:28;130.78;;;123.28;;
22768;SDS011;13001;51.968;5.918;2023-08-06T13:54:56;132.22;;;124.65;;
22768;SDS011;13001;51.968;5.918;2023-08-06T13:57:23;120.75;;;113.80;;
22768;SDS011;13001;51.968;5.918;2023-08-06T13:59:51;122.98;;;115.67;;
22768;SDS011;13001;51.968;5.918;2023-08-06T14:02:18;124.45;;;117.10;;
22768;SDS011;13001;51.968;5.918;2023-08-06T14:04:46;120.85;;;113.95;;
22768;SDS011;13001;51.968;5.918;2023-08-06T14:07:13;125.58;;;118.35;;
22768;SDS011;13001;51.968;5.918;2023-08-06T14:09:41;135.52;;;127.62;;
22768;SDS011;13001;51.968;5.918;2023-08-06T14:12:10;137.45;;;129.47;;
22768;SDS011;13001;51.968;5.918;2023-08-06T14:14:37;143.17;;;134.87;;
22768;SDS011;13001;51.968;5.918;2023-08-06T14:17:05;144.40;;;135.80;;
22768;SDS011;13001;51.968;5.918;2023-08-06T14:19:34;138.52;;;130.50;;